createdAt,value
2018-06-30T00:00:31.440Z,8.80
2018-06-30T00:01:48.138Z,9.50
2018-06-30T00:04:06.789Z,9.60
2018-06-30T00:05:12.434Z,10.20
2018-06-30T00:06:04.449Z,8.90
2018-06-30T00:08:32.827Z,8.80
2018-06-30T00:09:17.680Z,11.30
2018-06-30T00:11:47.080Z,9.40
2018-06-30T00:13:52.324Z,10.90
2018-06-30T00:15:57.963Z,10.60
2018-06-30T00:17:04.940Z,9.10
2018-06-30T00:18:12.312Z,8.30
2018-06-30T00:19:26.653Z,9.30
2018-06-30T00:22:28.518Z,10.80
2018-06-30T00:23:43.482Z,10.50
2018-06-30T00:24:36.731Z,10.00
2018-06-30T00:25:44.820Z,10.40
2018-06-30T00:26:56.606Z,10.50
2018-06-30T00:27:52.000Z,14.70
2018-06-30T00:29:02.351Z,9.80
2018-06-30T00:30:18.437Z,9.30
2018-06-30T00:32:29.820Z,9.20
2018-06-30T00:35:37.207Z,9.10
2018-06-30T00:36:53.906Z,11.60
2018-06-30T00:37:41.932Z,13.00
2018-06-30T00:38:56.070Z,11.80
2018-06-30T00:40:01.094Z,11.30
2018-06-30T00:41:01.614Z,9.90
2018-06-30T00:42:13.805Z,9.10
2018-06-30T00:43:20.060Z,10.60
2018-06-30T00:44:15.049Z,9.30
2018-06-30T00:45:27.341Z,11.40
2018-06-30T00:47:28.891Z,11.50
2018-06-30T00:48:46.001Z,13.00
2018-06-30T00:49:51.126Z,10.50
2018-06-30T00:50:53.795Z,12.00
2018-06-30T00:52:07.120Z,12.10
2018-06-30T00:53:08.350Z,13.20
2018-06-30T00:54:09.073Z,11.00
2018-06-30T00:55:12.471Z,12.10
2018-06-30T00:56:20.352Z,11.80
2018-06-30T00:57:24.761Z,14.30
2018-06-30T00:59:42.047Z,13.20
2018-06-30T01:00:42.191Z,12.10
2018-06-30T01:01:58.478Z,11.10
2018-06-30T01:02:54.697Z,11.90
2018-06-30T01:05:09.971Z,9.80
2018-06-30T01:06:09.265Z,13.60
2018-06-30T01:08:15.621Z,14.00
2018-06-30T01:09:22.795Z,11.70
2018-06-30T01:10:31.812Z,12.40
2018-06-30T01:11:40.625Z,14.70
2018-06-30T01:12:40.428Z,11.90
2018-06-30T01:13:51.391Z,12.80
2018-06-30T01:14:53.249Z,12.00
2018-06-30T01:16:08.724Z,12.90
2018-06-30T01:16:59.808Z,11.30
2018-06-30T01:18:11.056Z,10.60
2018-06-30T01:21:27.382Z,14.00
2018-06-30T01:22:35.990Z,11.50
2018-06-30T01:23:39.068Z,12.30
2018-06-30T01:24:46.345Z,10.50
2018-06-30T01:25:42.359Z,12.80
2018-06-30T01:27:01.515Z,13.40
2018-06-30T01:28:01.010Z,12.30
2018-06-30T01:30:12.902Z,13.60
2018-06-30T01:31:20.895Z,14.20
2018-06-30T01:32:20.561Z,11.30
2018-06-30T01:33:28.794Z,12.80
2018-06-30T01:34:30.746Z,15.50
2018-06-30T01:35:39.867Z,11.60
2018-06-30T01:36:46.735Z,13.80
2018-06-30T01:37:57.698Z,11.90
2018-06-30T01:39:01.187Z,12.50
2018-06-30T01:39:58.633Z,13.10
2018-06-30T01:41:07.753Z,13.00
2018-06-30T01:42:18.818Z,13.70
2018-06-30T01:43:20.472Z,15.80
2018-06-30T01:44:12.075Z,12.30
2018-06-30T01:45:30.003Z,13.80
2018-06-30T01:46:31.851Z,12.10
2018-06-30T01:48:42.822Z,13.20
2018-06-30T01:49:51.839Z,12.70
2018-06-30T01:50:57.889Z,14.50
2018-06-30T01:53:01.794Z,14.70
2018-06-30T01:54:11.016Z,13.10
2018-06-30T01:55:13.893Z,13.80
2018-06-30T01:57:26.295Z,13.50
2018-06-30T01:58:33.879Z,11.60
2018-06-30T01:59:40.952Z,13.10
2018-06-30T02:01:50.282Z,14.00
2018-06-30T02:02:57.978Z,12.50
2018-06-30T02:04:04.019Z,14.40
2018-06-30T02:05:07.302Z,14.00
2018-06-30T02:06:12.532Z,14.90
2018-06-30T02:09:29.655Z,12.30
2018-06-30T02:10:41.639Z,16.80
2018-06-30T02:12:48.823Z,13.50
2018-06-30T02:13:57.636Z,14.40
2018-06-30T02:14:56.585Z,12.60
2018-06-30T02:16:05.330Z,14.40
2018-06-30T02:17:03.391Z,12.80
2018-06-30T02:18:07.698Z,12.50
2018-06-30T02:19:24.704Z,16.90
2018-06-30T02:20:17.966Z,13.20
2018-06-30T02:21:34.421Z,13.50
2018-06-30T02:22:32.505Z,13.00
2018-06-30T02:23:40.295Z,14.10
2018-06-30T02:24:45.831Z,15.10
2018-06-30T02:25:54.852Z,14.00
2018-06-30T02:27:09.807Z,14.10
2018-06-30T02:28:05.821Z,14.90
2018-06-30T02:29:11.049Z,13.80
2018-06-30T02:30:14.848Z,13.80
2018-06-30T02:31:14.753Z,14.20
2018-06-30T02:33:30.945Z,15.10
2018-06-30T02:35:46.111Z,14.90
2018-06-30T02:36:40.896Z,13.40
2018-06-30T02:37:45.000Z,12.50
2018-06-30T02:38:58.536Z,14.50
2018-06-30T02:40:06.414Z,12.70
2018-06-30T02:41:23.931Z,14.70
2018-06-30T02:43:21.081Z,14.30
2018-06-30T02:44:18.322Z,11.60
2018-06-30T02:45:34.609Z,12.80
2018-06-30T02:46:45.366Z,12.70
2018-06-30T02:47:40.600Z,14.00
2018-06-30T02:48:46.718Z,12.70
2018-06-30T02:49:48.561Z,17.50
2018-06-30T02:50:54.302Z,14.30
2018-06-30T02:52:01.579Z,13.30
2018-06-30T02:53:06.194Z,11.60
2018-06-30T02:54:09.787Z,13.70
2018-06-30T02:56:31.406Z,14.40
2018-06-30T02:58:42.892Z,16.00
2018-06-30T02:59:50.473Z,14.90
2018-06-30T03:00:59.797Z,15.10
2018-06-30T03:01:54.683Z,15.70
2018-06-30T03:03:07.389Z,14.40
2018-06-30T03:05:22.356Z,15.90
2018-06-30T03:06:27.992Z,15.00
2018-06-30T03:07:23.397Z,17.80
2018-06-30T03:08:28.319Z,16.90
2018-06-30T03:09:41.325Z,14.60
2018-06-30T03:10:34.982Z,16.40
2018-06-30T03:11:50.657Z,16.50
2018-06-30T03:13:06.440Z,16.70
2018-06-30T03:15:10.964Z,15.20
2018-06-30T03:16:12.700Z,15.70
2018-06-30T03:17:33.615Z,15.90
2018-06-30T03:18:35.446Z,15.00
2018-06-30T03:20:47.854Z,17.70
2018-06-30T03:21:46.019Z,16.40
2018-06-30T03:22:45.917Z,17.90
2018-06-30T03:24:55.360Z,18.80
2018-06-30T03:25:57.304Z,18.80
2018-06-30T03:27:13.123Z,15.60
2018-06-30T03:28:15.854Z,15.90
2018-06-30T03:29:23.949Z,14.70
2018-06-30T03:30:18.632Z,13.90
2018-06-30T03:31:30.897Z,15.60
2018-06-30T03:32:34.722Z,14.30
2018-06-30T03:33:55.926Z,18.60
2018-06-30T03:34:52.860Z,17.80
2018-06-30T03:35:47.851Z,15.40
2018-06-30T03:36:52.873Z,15.00
2018-06-30T03:38:10.801Z,15.10
2018-06-30T03:39:01.078Z,17.20
2018-06-30T03:40:40.101Z,15.20
2018-06-30T03:44:42.790Z,17.30
2018-06-30T03:45:36.960Z,16.30
2018-06-30T03:49:01.454Z,16.50
2018-06-30T03:49:59.822Z,15.70
2018-06-30T03:51:09.864Z,15.80
2018-06-30T03:52:07.416Z,19.30
2018-06-30T03:53:28.004Z,19.30
2018-06-30T03:54:13.673Z,19.30
2018-06-30T03:56:29.663Z,18.50
2018-06-30T03:58:05.100Z,20.80
2018-06-30T03:58:43.498Z,18.40
2018-06-30T03:59:58.969Z,18.20
2018-06-30T04:01:25.635Z,17.60
2018-06-30T04:02:34.209Z,18.70
2018-06-30T04:03:16.194Z,19.80
2018-06-30T04:04:11.487Z,19.30
2018-06-30T04:05:20.096Z,18.80
2018-06-30T04:06:23.278Z,18.40
2018-06-30T04:07:50.321Z,18.40
2018-06-30T04:08:40.903Z,18.40
2018-06-30T04:09:35.586Z,20.70
2018-06-30T04:11:05.595Z,19.00
2018-06-30T04:11:54.954Z,20.00
2018-06-30T04:13:10.222Z,19.00
2018-06-30T04:14:10.736Z,18.50
2018-06-30T04:15:22.416Z,17.90
2018-06-30T04:16:14.436Z,19.00
2018-06-30T04:17:20.177Z,19.30
2018-06-30T04:20:39.348Z,17.60
2018-06-30T04:21:39.969Z,20.20
2018-06-30T04:24:05.787Z,20.70
2018-06-30T04:24:49.512Z,20.50
2018-06-30T04:26:05.493Z,20.90
2018-06-30T04:27:29.360Z,19.10
2018-06-30T04:28:21.073Z,22.40
2018-06-30T04:30:36.448Z,18.80
2018-06-30T04:31:34.097Z,19.70
2018-06-30T04:33:38.001Z,20.00
2018-06-30T04:34:49.479Z,19.10
2018-06-30T04:35:54.813Z,19.80
2018-06-30T04:36:57.585Z,18.30
2018-06-30T04:38:08.647Z,19.10
2018-06-30T04:39:02.099Z,20.10
2018-06-30T04:40:09.581Z,22.00
2018-06-30T04:41:24.646Z,18.80
2018-06-30T04:42:17.176Z,21.60
2018-06-30T04:43:41.552Z,18.90
2018-06-30T04:44:31.018Z,20.60
2018-06-30T04:45:36.650Z,21.10
2018-06-30T04:46:49.661Z,19.10
2018-06-30T04:47:53.665Z,18.50
2018-06-30T04:48:53.464Z,20.70
2018-06-30T04:51:09.454Z,20.60
2018-06-30T04:52:22.465Z,18.60
2018-06-30T04:53:22.674Z,19.50
2018-06-30T04:54:17.564Z,19.30
2018-06-30T04:55:25.554Z,18.70
2018-06-30T04:58:44.315Z,19.90
2018-06-30T04:59:47.803Z,18.50
2018-06-30T05:01:12.898Z,17.10
2018-06-30T05:02:11.164Z,22.90
2018-06-30T05:03:01.955Z,18.90
2018-06-30T05:04:14.967Z,19.30
2018-06-30T05:05:25.726Z,18.90
2018-06-30T05:06:34.948Z,17.90
2018-06-30T05:09:32.101Z,22.40
2018-06-30T05:10:49.927Z,18.80
2018-06-30T05:15:05.215Z,19.70
2018-06-30T05:16:13.512Z,19.40
2018-06-30T05:17:19.560Z,21.70
2018-06-30T05:21:36.893Z,19.30
2018-06-30T05:22:46.014Z,18.10
2018-06-30T05:24:50.124Z,17.90
2018-06-30T05:26:09.074Z,19.80
2018-06-30T05:29:16.467Z,20.00
2018-06-30T05:30:29.479Z,19.80
2018-06-30T05:31:27.028Z,18.40
2018-06-30T05:32:38.503Z,17.90
2018-06-30T05:33:40.386Z,16.90
2018-06-30T05:34:46.095Z,19.70
2018-06-30T05:35:51.843Z,17.50
2018-06-30T05:36:57.578Z,18.00
2018-06-30T05:37:58.508Z,18.10
2018-06-30T05:39:10.495Z,17.10
2018-06-30T05:40:20.026Z,17.30
2018-06-30T05:41:22.684Z,18.00
2018-06-30T05:42:30.071Z,16.90
2018-06-30T05:43:28.133Z,17.80
2018-06-30T05:44:33.362Z,41.60
2018-06-30T05:45:45.967Z,16.80
2018-06-30T05:46:42.394Z,17.30
2018-06-30T05:50:03.808Z,18.10
2018-06-30T05:51:12.418Z,16.20
2018-06-30T05:52:18.875Z,16.20
2018-06-30T05:53:15.448Z,16.80
2018-06-30T05:54:19.605Z,14.70
2018-06-30T05:55:27.497Z,16.60
2018-06-30T05:56:27.813Z,16.60
2018-06-30T05:57:38.880Z,14.20
2018-06-30T05:58:49.534Z,17.90
2018-06-30T05:59:51.383Z,15.20
2018-06-30T06:00:59.137Z,17.10
2018-06-30T06:02:07.474Z,14.30
2018-06-30T06:03:08.249Z,16.20
2018-06-30T06:05:18.760Z,17.30
2018-06-30T06:07:36.078Z,14.50
2018-06-30T06:08:36.084Z,16.10
2018-06-30T06:09:41.890Z,13.40
2018-06-30T06:10:52.176Z,13.30
2018-06-30T06:11:49.212Z,12.40
2018-06-30T06:12:57.823Z,13.40
2018-06-30T06:14:01.924Z,12.50
2018-06-30T06:15:07.154Z,14.20
2018-06-30T06:16:17.502Z,13.10
2018-06-30T06:17:17.102Z,15.50
2018-06-30T06:18:32.159Z,14.50
2018-06-30T06:20:40.160Z,12.40
2018-06-30T06:21:51.434Z,15.10
2018-06-30T06:24:59.233Z,12.60
2018-06-30T06:26:11.530Z,15.10
2018-06-30T06:27:08.880Z,10.20
2018-06-30T06:28:15.331Z,12.90
2018-06-30T06:31:36.050Z,12.90
2018-06-30T06:32:35.820Z,11.70
2018-06-30T06:33:46.903Z,11.10
2018-06-30T06:34:53.063Z,12.00
2018-06-30T06:35:53.471Z,9.80
2018-06-30T06:38:12.429Z,14.00
2018-06-30T06:40:17.562Z,9.40
2018-06-30T06:41:26.076Z,9.60
2018-06-30T06:42:32.427Z,9.20
2018-06-30T06:43:33.250Z,12.40
2018-06-30T06:44:44.827Z,9.70
2018-06-30T06:45:52.719Z,12.00
2018-06-30T06:48:00.114Z,9.80
2018-06-30T06:49:00.402Z,9.30
2018-06-30T06:51:18.869Z,10.20
2018-06-30T06:52:24.000Z,10.80
2018-06-30T06:54:22.265Z,9.50
2018-06-30T06:55:38.658Z,8.10
2018-06-30T06:56:44.091Z,8.60
2018-06-30T06:57:49.935Z,11.00
2018-06-30T06:58:58.900Z,8.80
2018-06-30T07:00:18.900Z,9.00
2018-06-30T07:01:01.730Z,7.70
2018-06-30T07:02:11.473Z,11.00
2018-06-30T07:03:20.381Z,9.40
2018-06-30T07:04:16.294Z,9.20
2018-06-30T07:05:24.806Z,8.30
2018-06-30T07:06:32.697Z,12.50
2018-06-30T07:07:34.919Z,7.70
2018-06-30T07:08:39.050Z,9.60
2018-06-30T07:09:54.520Z,8.10
2018-06-30T07:10:55.553Z,8.50
2018-06-30T07:11:59.347Z,9.30
2018-06-30T07:13:05.904Z,7.30
2018-06-30T07:14:12.058Z,9.30
2018-06-30T07:15:17.390Z,8.70
2018-06-30T07:16:26.723Z,7.20
2018-06-30T07:17:37.476Z,7.40
2018-06-30T07:18:34.510Z,7.00
2018-06-30T07:19:35.132Z,8.00
2018-06-30T07:20:57.976Z,7.20
2018-06-30T07:22:02.394Z,7.30
2018-06-30T07:23:02.185Z,8.50
2018-06-30T07:23:57.278Z,6.90
2018-06-30T07:26:12.205Z,10.70
2018-06-30T07:27:18.504Z,7.70
2018-06-30T07:29:29.217Z,6.80
2018-06-30T07:31:32.346Z,8.50
2018-06-30T07:32:41.671Z,8.80
2018-06-30T07:34:00.911Z,7.30
2018-06-30T07:35:11.176Z,8.10
2018-06-30T07:36:06.779Z,6.30
2018-06-30T07:37:14.104Z,6.10
2018-06-30T07:40:28.618Z,6.90
2018-06-30T07:41:34.056Z,8.10
2018-06-30T07:43:44.715Z,6.40
2018-06-30T07:44:48.250Z,5.50
2018-06-30T07:45:53.227Z,7.10
2018-06-30T07:47:02.042Z,7.80
2018-06-30T07:49:07.080Z,6.80
2018-06-30T07:50:23.005Z,7.40
2018-06-30T07:51:14.980Z,7.50
2018-06-30T07:52:25.423Z,7.30
2018-06-30T07:53:23.280Z,6.40
2018-06-30T07:54:35.924Z,8.10
2018-06-30T07:57:05.796Z,6.00
2018-06-30T07:58:01.933Z,6.80
2018-06-30T07:58:56.928Z,6.10
2018-06-30T08:00:16.874Z,9.60
2018-06-30T08:01:24.665Z,8.10
2018-06-30T08:02:27.129Z,5.50
2018-06-30T08:03:45.060Z,6.80
2018-06-30T08:04:26.837Z,7.00
2018-06-30T08:05:41.177Z,6.80
2018-06-30T08:06:44.675Z,6.50
2018-06-30T08:09:09.570Z,10.20
2018-06-30T08:10:02.921Z,7.20
2018-06-30T08:11:07.223Z,8.30
2018-06-30T08:12:00.163Z,5.10
2018-06-30T08:13:55.892Z,8.10
2018-06-30T08:14:57.766Z,4.90
2018-06-30T08:15:41.934Z,8.80
2018-06-30T08:17:53.925Z,8.40
2018-06-30T08:18:47.106Z,7.80
2018-06-30T08:19:57.965Z,6.50
2018-06-30T08:21:02.079Z,6.50
2018-06-30T08:22:38.121Z,5.80
2018-06-30T08:23:35.873Z,7.50
2018-06-30T08:24:42.434Z,7.70
2018-06-30T08:25:39.172Z,9.80
2018-06-30T08:26:53.301Z,5.30
2018-06-30T08:27:55.928Z,7.50
2018-06-30T08:28:51.268Z,6.40
2018-06-30T08:29:58.445Z,6.60
2018-06-30T08:30:55.928Z,8.10
2018-06-30T08:32:36.550Z,8.00
2018-06-30T08:33:03.070Z,4.90
2018-06-30T08:34:09.221Z,4.80
2018-06-30T08:35:19.673Z,7.80
2018-06-30T08:36:46.816Z,5.80
2018-06-30T08:37:28.911Z,6.80
2018-06-30T08:38:48.783Z,12.80
2018-06-30T08:39:40.184Z,20.60
2018-06-30T08:41:55.934Z,8.10
2018-06-30T08:42:51.932Z,7.00
2018-06-30T08:44:00.177Z,7.00
2018-06-30T08:46:13.296Z,7.40
2018-06-30T08:47:14.431Z,4.70
2018-06-30T08:50:42.507Z,7.60
2018-06-30T08:52:35.659Z,6.60
2018-06-30T08:55:54.010Z,6.30
2018-06-30T08:57:00.123Z,5.80
2018-06-30T08:58:05.085Z,6.00
2018-06-30T08:59:12.053Z,5.50
2018-06-30T09:00:15.132Z,5.10
2018-06-30T09:02:31.120Z,6.50
2018-06-30T09:03:41.207Z,8.30
2018-06-30T09:04:37.178Z,9.40
2018-06-30T09:05:39.133Z,5.40
2018-06-30T09:06:53.162Z,5.50
2018-06-30T09:07:52.657Z,7.10
2018-06-30T09:08:54.209Z,6.20
2018-06-30T09:09:58.508Z,5.20
2018-06-30T09:11:09.940Z,6.20
2018-06-30T09:12:13.822Z,5.10
2018-06-30T09:13:21.774Z,6.40
2018-06-30T09:14:29.673Z,5.90
2018-06-30T09:15:41.858Z,5.60
2018-06-30T09:16:40.023Z,5.70
2018-06-30T09:17:45.763Z,6.50
2018-06-30T09:18:48.942Z,4.30
2018-06-30T09:19:58.269Z,6.10
2018-06-30T09:21:16.812Z,4.80
2018-06-30T09:22:09.686Z,5.90
2018-06-30T09:23:14.889Z,4.80
2018-06-30T09:24:18.637Z,5.50
2018-06-30T09:25:32.303Z,4.40
2018-06-30T09:27:32.518Z,7.70
2018-06-30T09:28:37.544Z,4.20
2018-06-30T09:30:50.470Z,5.40
2018-06-30T09:31:59.682Z,6.30
2018-06-30T09:33:22.015Z,5.40
2018-06-30T09:34:07.610Z,7.40
2018-06-30T09:35:27.145Z,6.20
2018-06-30T09:38:36.791Z,7.50
2018-06-30T09:39:41.956Z,4.50
2018-06-30T09:40:42.641Z,7.00
2018-06-30T09:41:51.866Z,7.40
2018-06-30T09:44:09.206Z,5.70
2018-06-30T09:45:01.205Z,6.40
2018-06-30T09:46:01.825Z,5.30
2018-06-30T09:47:18.318Z,37.70
2018-06-30T09:48:30.615Z,18.60
2018-06-30T09:49:32.873Z,115.50
2018-06-30T09:51:35.856Z,5.80
2018-06-30T09:52:41.497Z,4.50
2018-06-30T09:53:46.417Z,4.90
2018-06-30T09:54:45.714Z,3.60
2018-06-30T09:55:55.752Z,6.50
2018-06-30T09:57:06.612Z,4.40
2018-06-30T09:59:06.314Z,4.00
2018-06-30T10:01:29.984Z,4.50
2018-06-30T10:02:36.962Z,4.50
2018-06-30T10:03:36.346Z,3.30
2018-06-30T10:04:43.828Z,5.50
2018-06-30T10:05:44.553Z,4.50
2018-06-30T10:06:53.160Z,5.10
2018-06-30T10:08:56.452Z,3.50
2018-06-30T10:10:06.904Z,5.10
2018-06-30T10:11:23.908Z,4.90
2018-06-30T10:13:26.277Z,4.10
2018-06-30T10:14:28.541Z,5.30
2018-06-30T10:16:35.717Z,3.70
2018-06-30T10:19:58.573Z,5.20
2018-06-30T10:21:02.725Z,3.80
2018-06-30T10:22:11.696Z,5.60
2018-06-30T10:23:16.413Z,4.30
2018-06-30T10:24:24.202Z,5.70
2018-06-30T10:25:25.640Z,5.00
2018-06-30T10:26:26.262Z,3.60
2018-06-30T10:30:03.558Z,4.50
2018-06-30T10:30:52.730Z,4.70
2018-06-30T10:32:04.493Z,6.10
2018-06-30T10:32:59.380Z,3.20
2018-06-30T10:34:01.031Z,4.90
2018-06-30T10:35:25.914Z,4.50
2018-06-30T10:36:15.068Z,3.70
2018-06-30T10:37:37.965Z,4.30
2018-06-30T10:39:43.459Z,3.10
2018-06-30T10:42:59.454Z,2.40
2018-06-30T10:45:07.346Z,4.30
2018-06-30T10:48:18.220Z,3.00
2018-06-30T10:49:39.937Z,5.60
2018-06-30T10:50:55.508Z,4.20
2018-06-30T10:51:43.123Z,5.40
2018-06-30T10:52:42.926Z,4.90
2018-06-30T10:53:46.619Z,4.60
2018-06-30T10:56:05.481Z,3.10
2018-06-30T10:57:23.856Z,3.20
2018-06-30T10:58:03.747Z,3.00
2018-06-30T10:59:17.783Z,3.00
2018-06-30T11:01:23.858Z,5.70
2018-06-30T11:02:41.971Z,3.10
2018-06-30T11:03:43.513Z,6.90
2018-06-30T11:04:44.646Z,3.40
2018-06-30T11:06:00.875Z,3.20
2018-06-30T11:07:02.786Z,4.00
2018-06-30T11:10:15.725Z,2.60
2018-06-30T11:11:17.260Z,4.00
2018-06-30T11:13:34.058Z,3.10
2018-06-30T11:16:54.970Z,2.00
2018-06-30T11:17:56.310Z,4.10
2018-06-30T11:19:02.867Z,2.60
2018-06-30T11:21:18.957Z,3.10
2018-06-30T11:23:18.970Z,5.00
2018-06-30T11:24:16.315Z,2.70
2018-06-30T11:25:33.218Z,4.50
2018-06-30T11:26:45.208Z,2.60
2018-06-30T11:27:42.653Z,2.20
2018-06-30T11:28:49.740Z,3.10
2018-06-30T11:29:55.365Z,2.30
2018-06-30T11:30:59.774Z,2.20
2018-06-30T11:32:06.650Z,2.60
2018-06-30T11:33:09.004Z,3.30
2018-06-30T11:34:17.714Z,3.20
2018-06-30T11:35:14.965Z,3.10
2018-06-30T11:36:31.451Z,3.60
2018-06-30T11:37:31.353Z,4.30
2018-06-30T11:38:36.593Z,3.40
2018-06-30T11:39:44.380Z,2.80
2018-06-30T11:40:46.162Z,4.00
2018-06-30T11:43:10.609Z,6.60
2018-06-30T11:45:14.419Z,3.80
2018-06-30T11:47:21.988Z,4.30
2018-06-30T11:48:29.280Z,3.80
2018-06-30T11:49:29.190Z,3.90
2018-06-30T11:50:37.493Z,3.90
2018-06-30T11:51:45.896Z,4.10
2018-06-30T11:52:50.809Z,3.80
2018-06-30T11:53:56.389Z,1.70
2018-06-30T11:55:02.293Z,2.10
2018-06-30T11:56:07.316Z,4.10
2018-06-30T11:57:17.463Z,3.00
2018-06-30T11:58:12.667Z,3.60
2018-06-30T11:59:28.892Z,3.80
2018-06-30T12:00:27.414Z,3.60
2018-06-30T12:01:31.618Z,5.70
2018-06-30T12:02:43.711Z,1.90
2018-06-30T12:03:45.773Z,2.20
2018-06-30T12:04:50.892Z,4.90
2018-06-30T12:06:02.778Z,3.20
2018-06-30T12:08:03.403Z,4.60
2018-06-30T12:09:14.393Z,39.70
2018-06-30T12:10:15.501Z,6.40
2018-06-30T12:11:22.168Z,4.90
2018-06-30T12:12:28.008Z,2.60
2018-06-30T12:13:31.600Z,2.80
2018-06-30T12:14:43.004Z,6.90
2018-06-30T12:15:57.417Z,4.20
2018-06-30T12:16:58.143Z,2.70
2018-06-30T12:18:00.196Z,3.90
2018-06-30T12:18:57.131Z,5.10
2018-06-30T12:20:13.729Z,4.10
2018-06-30T12:21:16.704Z,5.40
2018-06-30T12:22:19.372Z,5.70
2018-06-30T12:23:22.667Z,6.10
2018-06-30T12:24:31.408Z,6.60
2018-06-30T12:25:40.283Z,4.10
2018-06-30T12:26:47.267Z,4.10
2018-06-30T12:27:53.914Z,4.50
2018-06-30T12:28:58.738Z,4.60
2018-06-30T12:29:54.031Z,5.60
2018-06-30T12:31:07.454Z,5.00
2018-06-30T12:32:05.424Z,6.70
2018-06-30T12:33:21.188Z,2.50
2018-06-30T12:34:19.457Z,5.20
2018-06-30T12:35:22.029Z,3.30
2018-06-30T12:36:32.472Z,5.10
2018-06-30T12:37:31.885Z,4.10
2018-06-30T12:38:35.047Z,3.00
2018-06-30T12:39:46.011Z,2.60
2018-06-30T12:40:50.113Z,1.90
2018-06-30T12:41:57.392Z,2.80
2018-06-30T12:43:06.613Z,3.10
2018-06-30T12:44:09.291Z,3.70
2018-06-30T12:45:22.091Z,2.80
2018-06-30T12:46:14.221Z,4.50
2018-06-30T12:47:28.043Z,3.80
2018-06-30T12:48:28.869Z,4.00
2018-06-30T12:49:32.562Z,3.70
2018-06-30T12:50:53.252Z,3.20
2018-06-30T12:51:52.238Z,2.50
2018-06-30T12:52:50.710Z,3.90
2018-06-30T12:53:57.677Z,3.80
2018-06-30T12:55:02.805Z,2.50
2018-06-30T12:57:19.100Z,3.30
2018-06-30T12:59:23.926Z,4.00
2018-06-30T13:00:27.107Z,2.20
2018-06-30T13:01:43.399Z,2.90
2018-06-30T13:02:41.866Z,2.10
2018-06-30T13:03:54.860Z,2.50
2018-06-30T13:04:50.891Z,4.20
2018-06-30T13:05:59.935Z,3.50
2018-06-30T13:07:01.964Z,1.60
2018-06-30T13:08:09.352Z,3.40
2018-06-30T13:10:14.068Z,4.50
2018-06-30T13:11:28.439Z,3.30
2018-06-30T13:12:35.073Z,2.50
2018-06-30T13:15:57.630Z,5.00
2018-06-30T13:17:51.596Z,6.80
2018-06-30T13:19:08.803Z,6.90
2018-06-30T13:20:21.108Z,3.70
2018-06-30T13:21:15.781Z,2.10
2018-06-30T13:22:27.256Z,2.50
2018-06-30T13:24:27.989Z,5.50
2018-06-30T13:25:38.849Z,3.10
2018-06-30T13:27:53.096Z,2.10
2018-06-30T13:29:01.192Z,3.80
2018-06-30T13:30:03.249Z,3.10
2018-06-30T13:31:08.373Z,3.10
2018-06-30T13:32:23.437Z,1.90
2018-06-30T13:33:16.579Z,1.70
2018-06-30T13:34:22.631Z,2.80
2018-06-30T13:35:25.810Z,2.20
2018-06-30T13:36:29.931Z,3.30
2018-06-30T13:37:42.719Z,2.50
2018-06-30T13:39:52.462Z,4.00
2018-06-30T13:41:02.708Z,2.00
2018-06-30T13:41:56.476Z,2.40
2018-06-30T13:43:15.841Z,2.10
2018-06-30T13:44:09.293Z,3.40
2018-06-30T13:45:21.782Z,4.20
2018-06-30T13:46:23.596Z,3.20
2018-06-30T13:47:32.035Z,2.40
2018-06-30T13:48:29.489Z,2.00
2018-06-30T13:49:37.372Z,5.30
2018-06-30T13:50:47.417Z,2.00
2018-06-30T13:51:46.910Z,3.20
2018-06-30T13:52:53.369Z,3.00
2018-06-30T13:54:01.773Z,2.10
2018-06-30T13:55:04.446Z,3.30
2018-06-30T13:56:13.766Z,2.90
2018-06-30T13:58:20.539Z,1.30
2018-06-30T13:59:25.664Z,1.70
2018-06-30T14:00:31.817Z,3.70
2018-06-30T14:01:32.752Z,3.10
2018-06-30T14:02:44.118Z,8.00
2018-06-30T14:04:51.826Z,5.10
2018-06-30T14:06:02.071Z,4.60
2018-06-30T14:08:12.724Z,4.90
2018-06-30T14:09:19.385Z,4.50
2018-06-30T14:10:19.493Z,1.80
2018-06-30T14:11:28.102Z,5.00
2018-06-30T14:12:32.000Z,1.70
2018-06-30T14:13:48.800Z,2.60
2018-06-30T14:15:51.785Z,4.20
2018-06-30T14:16:56.706Z,4.60
2018-06-30T14:18:06.850Z,2.30
2018-06-30T14:19:13.821Z,2.30
2018-06-30T14:21:22.027Z,2.20
2018-06-30T14:22:31.154Z,3.60
2018-06-30T14:23:31.308Z,3.00
2018-06-30T14:25:45.096Z,2.20
2018-06-30T14:26:44.598Z,3.30
2018-06-30T14:27:46.647Z,1.40
2018-06-30T14:29:05.392Z,1.20
2018-06-30T14:30:01.815Z,3.50
2018-06-30T14:31:04.996Z,2.90
2018-06-30T14:32:11.042Z,1.00
2018-06-30T14:33:18.422Z,2.30
2018-06-30T14:34:29.597Z,1.10
2018-06-30T14:35:37.081Z,2.10
2018-06-30T14:36:32.064Z,3.30
2018-06-30T14:38:45.593Z,1.90
2018-06-30T14:39:48.773Z,3.60
2018-06-30T14:40:59.124Z,3.10
2018-06-30T14:42:05.076Z,2.30
2018-06-30T14:44:12.045Z,2.30
2018-06-30T14:46:35.612Z,2.60
2018-06-30T14:47:30.806Z,3.50
2018-06-30T14:48:31.938Z,1.40
2018-06-30T14:49:44.856Z,2.70
2018-06-30T14:50:49.155Z,2.00
2018-06-30T14:51:49.777Z,3.10
2018-06-30T14:53:01.867Z,3.00
2018-06-30T14:54:06.382Z,4.10
2018-06-30T14:55:10.793Z,1.30
2018-06-30T14:58:21.054Z,3.20
2018-06-30T14:59:36.006Z,1.80
2018-06-30T15:00:48.813Z,1.30
2018-06-30T15:01:44.832Z,1.70
2018-06-30T15:03:04.703Z,3.10
2018-06-30T15:03:54.058Z,2.40
2018-06-30T15:05:02.153Z,4.50
2018-06-30T15:06:04.623Z,2.00
2018-06-30T15:07:16.912Z,2.40
2018-06-30T15:11:28.920Z,2.60
2018-06-30T15:12:33.331Z,3.90
2018-06-30T15:13:48.910Z,3.50
2018-06-30T15:15:59.056Z,1.70
2018-06-30T15:17:04.053Z,1.90
2018-06-30T15:18:04.495Z,1.20
2018-06-30T15:19:10.054Z,3.30
2018-06-30T15:21:31.089Z,2.20
2018-06-30T15:22:31.760Z,2.10
2018-06-30T15:23:42.110Z,3.30
2018-06-30T15:24:40.102Z,2.80
2018-06-30T15:25:45.311Z,5.40
2018-06-30T15:26:49.094Z,1.60
2018-06-30T15:28:59.662Z,1.70
2018-06-30T15:30:04.785Z,2.10
2018-06-30T15:31:07.655Z,3.70
2018-06-30T15:32:26.506Z,3.20
2018-06-30T15:34:28.975Z,3.10
2018-06-30T15:35:39.324Z,2.50
2018-06-30T15:36:38.534Z,1.60
2018-06-30T15:39:50.445Z,2.20
2018-06-30T15:41:08.645Z,2.80
2018-06-30T15:42:06.707Z,2.30
2018-06-30T15:44:18.061Z,1.70
2018-06-30T15:45:23.634Z,2.10
2018-06-30T15:46:31.924Z,3.90
2018-06-30T15:47:38.494Z,1.80
2018-06-30T15:48:37.262Z,2.00
2018-06-30T15:49:47.204Z,2.20
2018-06-30T15:50:52.328Z,3.00
2018-06-30T15:51:59.402Z,1.90
2018-06-30T15:53:09.143Z,1.70
2018-06-30T15:54:06.271Z,3.70
2018-06-30T15:55:13.759Z,2.60
2018-06-30T15:56:18.377Z,1.90
2018-06-30T15:57:31.691Z,3.20
2018-06-30T15:58:42.150Z,1.20
2018-06-30T15:59:42.867Z,3.50
2018-06-30T16:00:36.739Z,3.50
2018-06-30T16:01:52.067Z,2.20
2018-06-30T16:02:57.068Z,3.50
2018-06-30T16:03:57.068Z,1.40
2018-06-30T16:05:01.056Z,1.10
2018-06-30T16:06:09.020Z,2.80
2018-06-30T16:08:19.172Z,0.80
2018-06-30T16:09:31.071Z,3.00
2018-06-30T16:10:38.948Z,1.30
2018-06-30T16:11:33.529Z,3.60
2018-06-30T16:12:43.164Z,3.40
2018-06-30T16:13:52.589Z,1.80
2018-06-30T16:16:03.048Z,7.70
2018-06-30T16:18:16.474Z,0.90
2018-06-30T16:19:25.398Z,1.90
2018-06-30T16:20:31.645Z,3.50
2018-06-30T16:21:28.219Z,2.50
2018-06-30T16:22:26.948Z,1.60
2018-06-30T16:24:43.966Z,2.90
2018-06-30T16:25:53.183Z,3.80
2018-06-30T16:27:04.248Z,1.20
2018-06-30T16:27:54.220Z,1.60
2018-06-30T16:29:07.239Z,2.50
2018-06-30T16:30:14.151Z,3.30
2018-06-30T16:32:15.852Z,1.50
2018-06-30T16:33:29.582Z,1.00
2018-06-30T16:34:35.527Z,1.50
2018-06-30T16:35:42.092Z,1.30
2018-06-30T16:36:55.509Z,1.20
2018-06-30T16:37:45.379Z,1.80
2018-06-30T16:39:58.396Z,1.60
2018-06-30T16:41:06.288Z,1.70
2018-06-30T16:42:08.445Z,1.60
2018-06-30T16:43:16.439Z,1.30
2018-06-30T16:44:20.963Z,2.30
2018-06-30T16:45:34.582Z,1.60
2018-06-30T16:46:33.153Z,0.50
2018-06-30T16:47:39.200Z,1.60
2018-06-30T16:48:37.263Z,2.50
2018-06-30T16:49:45.563Z,2.10
2018-06-30T16:50:54.377Z,1.70
2018-06-30T16:53:07.498Z,2.10
2018-06-30T16:55:23.248Z,1.60
2018-06-30T16:56:22.980Z,1.10
2018-06-30T16:57:25.956Z,3.90
2018-06-30T16:58:42.274Z,2.50
2018-06-30T16:59:42.463Z,2.10
2018-06-30T17:01:00.282Z,2.10
2018-06-30T17:01:56.294Z,0.90
2018-06-30T17:03:00.294Z,1.20
2018-06-30T17:04:02.452Z,2.40
2018-06-30T17:05:04.301Z,1.80
2018-06-30T17:06:19.083Z,3.80
2018-06-30T17:07:21.419Z,1.10
2018-06-30T17:08:21.117Z,3.00
2018-06-30T17:09:26.049Z,1.90
2018-06-30T17:10:33.418Z,5.60
2018-06-30T17:11:51.345Z,2.20
2018-06-30T17:12:48.176Z,1.00
2018-06-30T17:13:56.479Z,1.80
2018-06-30T17:14:58.596Z,1.40
2018-06-30T17:17:14.939Z,1.30
2018-06-30T17:18:12.180Z,2.40
2018-06-30T17:19:20.277Z,2.60